1928 NOT_NAMED (1928205N16138)


IBTrACS version v04r00. Visit IBTrACS website for data access.
Please direct all questions to the IBTrACS Q and A forum

Storm track - Intensity - Wind Radii - Intensity Data - Source Data - All data

Summary Information

Storm ID 1928205N16138
Start Jul 22 22Z
End Jul 24 22Z
ATCF IDs
Track status Best track data.

Storm track plot

Map of storm track

Intensity plots

No Intensity information for this storm


Radial wind information

No radial wind information for this storm


Position and Intensity Table

BASIN ISO_TIME_________ NATURE LAT LON
degrees north degrees east
WP 1928-07-22 22:00:00 NR 15.80 137.90
WP 1928-07-23 00:00:00 NR 16.28 138.00
WP 03:00:00 NR 17.01 138.15
WP 06:00:00 NR 17.73 138.30
WP 09:00:00 NR 18.46 138.45
WP 10:00:00 NR 18.70 138.50
WP 12:00:00 NR 19.19 138.60
WP 15:00:00 NR 19.91 138.76
WP 18:00:00 NR 20.61 138.91
WP 21:00:00 NR 21.28 139.05
WP 22:00:00 NR 21.50 139.10
WP 1928-07-24 00:00:00 NR 21.91 139.20
WP 03:00:00 NR 22.49 139.34
WP 06:00:00 NR 23.05 139.47
WP 09:00:00 NR 23.61 139.57
WP 10:00:00 NR 23.80 139.60
WP 12:00:00 NR 24.18 139.64
WP 15:00:00 NR 24.78 139.68
WP 18:00:00 NR 25.38 139.70
WP 21:00:00 NR 26.00 139.70
WP 22:00:00 NR 26.20 139.70

Source Information

Agency Information
USA
TOKYO
CMA
HKO
NEWDELHI
REUNION
BOM
NADI
WELLINGTON
DS824
TD9636 cons_worldwide_trop_cyclone_18710101-19891231-003:Line=8039
TD9635
NEUMANN
MLC

All available IBTrACS Data

SEASON BASIN SUBBASIN ISO_TIME_________ NATURE LAT LON DIST2LAND LANDFALL IFLAG USA SSHS TD9636 LAT TD9636 LON TD9636 STAGE STORM SPEED STORM DIR
Year degrees north degrees east km km 1 degrees north degrees east kts degrees
1928 WP MM 1928-07-22 22:00:00 NR 15.80 137.90 1397 1397 __________O___ -1 15.80 137.90 7 15 12
1928 WP MM 1928-07-23 00:00:00 NR 16.28 138.00 1423 1423 __________P___ -1 16.28 138.00 7 15 11
1928 WP MM 03:00:00 NR 17.01 138.15 1458 1468 __________P___ -1 17.01 138.15 7 15 11
1928 WP MM 06:00:00 NR 17.73 138.30 1506 1510 __________P___ -1 17.73 138.30 7 15 11
1928 WP MM 09:00:00 NR 18.46 138.45 1552 1561 __________P___ -1 18.46 138.45 7 15 11
1928 WP MM 10:00:00 NR 18.70 138.50 1571 1538 __________O___ -1 18.70 138.50 7 15 12
1928 WP MM 12:00:00 NR 19.19 138.60 1538 1475 __________P___ -1 19.19 138.60 7 15 11
1928 WP MM 15:00:00 NR 19.91 138.76 1481 1418 __________P___ -1 19.91 138.76 7 15 11
1928 WP MM 18:00:00 NR 20.61 138.91 1418 1362 __________P___ -1 20.61 138.91 7 14 11
1928 WP MM 21:00:00 NR 21.28 139.05 1362 1344 __________P___ -1 21.28 139.05 7 14 11
1928 WP MM 22:00:00 NR 21.50 139.10 1344 1312 __________O___ -1 21.50 139.10 7 13 12
1928 WP MM 1928-07-24 00:00:00 NR 21.91 139.20 1312 1263 __________P___ -1 21.91 139.20 7 12 13
1928 WP MM 03:00:00 NR 22.49 139.34 1263 1205 __________P___ -1 22.49 139.34 7 12 12
1928 WP MM 06:00:00 NR 23.05 139.47 1205 1154 __________P___ -1 23.05 139.47 7 11 11
1928 WP MM 09:00:00 NR 23.61 139.57 1154 1133 __________P___ -1 23.61 139.57 7 11 9
1928 WP MM 10:00:00 NR 23.80 139.60 1133 1091 __________O___ -1 23.80 139.60 7 12 7
1928 WP MM 12:00:00 NR 24.18 139.64 1091 1031 __________P___ -1 24.18 139.64 7 12 4
1928 WP MM 15:00:00 NR 24.78 139.68 1031 969 __________P___ -1 24.78 139.68 7 12 3
1928 WP MM 18:00:00 NR 25.38 139.70 969 907 __________P___ -1 25.38 139.70 7 12 0
1928 WP MM 21:00:00 NR 26.00 139.70 907 886 __________P___ -1 26.00 139.70 7 12 0
1928 WP MM 22:00:00 NR 26.20 139.70 886 __________O___ -1 26.20 139.70 7 12 355